Time;durP1;ratioP1;P1;durP2;ratioP2;P2;SDS_P1;SDS_P2;PMS_P1;PMS_P2;Temp;Humidity;BMP_temperature;BMP_pressure;BME280_temperature;BME280_humidity;BME280_pressure;Samples;Min_cycle;Max_cycle;Signal;HPM_P1;HPM_P2
2022/09/23 00:00:39;;;;;;;19.65;10.77;;;9.30;99.90;;;;;;5074975;28;20025;-67
2022/09/23 00:03:05;;;;;;;19.98;9.45;;;9.30;99.90;;;;;;5074782;28;20055;-67
2022/09/23 00:05:31;;;;;;;18.30;11.35;;;9.30;99.90;;;;;;5068087;28;20076;-67
2022/09/23 00:07:58;;;;;;;18.92;9.82;;;9.30;99.90;;;;;;5052748;28;20029;-67
2022/09/23 00:10:26;;;;;;;21.00;9.75;;;9.30;99.90;;;;;;5035048;28;20041;-67
2022/09/23 00:12:54;;;;;;;19.75;10.20;;;9.30;99.90;;;;;;5038711;28;20036;-66
2022/09/23 00:15:20;;;;;;;17.63;10.48;;;9.30;99.90;;;;;;5034634;28;20018;-67
2022/09/23 00:17:46;;;;;;;17.67;9.95;;;9.30;99.90;;;;;;5034936;28;20025;-67
2022/09/23 00:20:13;;;;;;;16.58;9.60;;;9.20;99.90;;;;;;5030506;28;20018;-67
2022/09/23 00:22:39;;;;;;;15.90;9.10;;;9.20;99.90;;;;;;5016832;28;20083;-67
2022/09/23 00:25:07;;;;;;;15.05;9.75;;;9.10;99.90;;;;;;5035032;28;20424;-67
2022/09/23 00:27:32;;;;;;;14.57;8.15;;;9.10;99.90;;;;;;5036586;28;20026;-67
2022/09/23 00:29:59;;;;;;;15.30;8.93;;;9.10;99.90;;;;;;5034383;28;20040;-67
2022/09/23 00:32:25;;;;;;;18.05;9.38;;;9.10;99.90;;;;;;5034352;28;20026;-68
2022/09/23 00:34:51;;;;;;;14.70;8.05;;;9.00;99.90;;;;;;5034478;28;20021;-68
2022/09/23 00:37:18;;;;;;;14.35;8.75;;;9.00;99.90;;;;;;5033825;28;20490;-67
2022/09/23 00:39:47;;;;;;;15.15;8.00;;;8.80;99.90;;;;;;5045263;28;20480;-68
2022/09/23 00:42:19;;;;;;;13.05;7.47;;;8.80;99.90;;;;;;5037759;28;20025;-65
2022/09/23 00:44:48;;;;;;;14.35;7.72;;;8.80;99.90;;;;;;5055538;28;20029;-68
2022/09/23 00:47:30;;;;;;;13.80;7.97;;;8.80;99.90;;;;;;5033753;28;20021;-68
2022/09/23 00:50:05;;;;;;;14.88;7.70;;;8.80;99.90;;;;;;5042090;28;20037;-68
2022/09/23 00:52:32;;;;;;;14.95;8.52;;;8.80;99.90;;;;;;5036696;28;20026;-68
2022/09/23 00:54:59;;;;;;;14.75;8.13;;;8.90;99.90;;;;;;5034001;28;20061;-68
2022/09/23 00:57:27;;;;;;;13.63;7.53;;;8.80;99.90;;;;;;5034322;28;20095;-67
2022/09/23 00:59:53;;;;;;;14.65;7.28;;;8.80;99.90;;;;;;5053662;28;20017;-67
2022/09/23 01:02:19;;;;;;;15.02;7.25;;;8.80;99.90;;;;;;5053734;28;20036;-67
2022/09/23 01:04:48;;;;;;;18.55;8.43;;;8.80;99.90;;;;;;5053737;28;20044;-67
2022/09/23 01:07:14;;;;;;;15.55;8.13;;;8.80;99.90;;;;;;5072629;28;20557;-68
2022/09/23 01:09:40;;;;;;;15.00;7.85;;;8.80;99.90;;;;;;5084275;28;20045;-67
2022/09/23 01:12:25;;;;;;;14.13;7.35;;;8.80;99.90;;;;;;5055695;28;20025;-67
2022/09/23 01:15:17;;;;;;;17.00;8.93;;;8.80;99.90;;;;;;5071740;28;20063;-68
2022/09/23 01:18:07;;;;;;;13.70;7.75;;;8.80;99.90;;;;;;4985576;28;20035;-66
2022/09/23 01:20:51;;;;;;;16.38;8.40;;;8.80;99.90;;;;;;4992340;28;20035;-66
2022/09/23 01:23:17;;;;;;;17.27;8.25;;;8.80;99.90;;;;;;4991573;28;20568;-68
2022/09/23 01:25:43;;;;;;;15.75;8.55;;;8.80;99.90;;;;;;4991864;28;20102;-68
2022/09/23 01:28:15;;;;;;;16.65;9.52;;;8.60;99.90;;;;;;4990576;28;20069;-67
2022/09/23 01:30:49;;;;;;;18.45;9.35;;;8.60;99.90;;;;;;4991375;28;20038;-67
2022/09/23 01:33:21;;;;;;;16.30;9.00;;;8.60;99.90;;;;;;4991322;28;20030;-68
2022/09/23 01:35:58;;;;;;;15.35;8.77;;;8.60;99.90;;;;;;4991430;28;20042;-67
2022/09/23 01:38:51;;;;;;;14.65;8.48;;;8.60;99.90;;;;;;4991071;28;20038;-66
2022/09/23 01:41:20;;;;;;;14.18;8.07;;;8.60;99.90;;;;;;4991800;28;20050;-67
2022/09/23 01:43:59;;;;;;;13.63;7.97;;;8.60;99.90;;;;;;4991403;28;20032;-68
2022/09/23 01:46:53;;;;;;;14.88;8.30;;;8.60;99.90;;;;;;4991402;28;20113;-67
2022/09/23 01:49:22;;;;;;;15.70;8.63;;;8.40;99.90;;;;;;4991127;28;20038;-67
2022/09/23 01:51:58;;;;;;;13.13;8.07;;;8.50;99.90;;;;;;4991276;28;20027;-68
2022/09/23 01:54:52;;;;;;;13.35;7.65;;;8.40;99.90;;;;;;5021785;28;20041;-68
2022/09/23 01:57:43;;;;;;;14.30;7.95;;;8.40;99.90;;;;;;5072458;28;20028;-67
2022/09/23 02:00:13;;;;;;;17.35;8.32;;;8.40;99.90;;;;;;5072128;28;20119;-66
2022/09/23 02:03:12;;;;;;;13.38;6.40;;;8.40;99.90;;;;;;5058801;28;20067;-67
2022/09/23 02:05:49;;;;;;;19.30;7.20;;;8.40;99.90;;;;;;5071860;28;20045;-67
2022/09/23 02:08:22;;;;;;;14.48;8.05;;;8.50;99.90;;;;;;5072362;28;20033;-66
2022/09/23 02:10:55;;;;;;;15.80;8.45;;;8.40;99.90;;;;;;5072510;28;20479;-67
2022/09/23 02:13:48;;;;;;;13.63;7.43;;;8.30;99.90;;;;;;5037578;28;20418;-67
2022/09/23 02:16:28;;;;;;;13.65;7.60;;;8.40;99.90;;;;;;5046782;28;20040;-67
2022/09/23 02:18:57;;;;;;;13.10;6.97;;;8.40;99.90;;;;;;5058867;28;20028;-67
2022/09/23 02:21:32;;;;;;;15.38;6.93;;;8.50;99.90;;;;;;5071883;28;20024;-67
2022/09/23 02:24:11;;;;;;;14.80;7.03;;;8.50;99.90;;;;;;5072147;28;20024;-64
2022/09/23 02:26:51;;;;;;;12.88;6.25;;;8.50;99.90;;;;;;5071523;28;20410;-66
2022/09/23 02:29:32;;;;;;;14.15;6.93;;;8.40;99.90;;;;;;5046787;28;20044;-67
2022/09/23 02:32:22;;;;;;;17.75;9.05;;;8.40;99.90;;;;;;5071357;28;20033;-67
2022/09/23 02:35:09;;;;;;;28.48;16.60;;;8.40;99.90;;;;;;5061184;28;20021;-67
2022/09/23 02:37:42;;;;;;;16.70;8.90;;;8.30;99.90;;;;;;5064301;28;20035;-67
2022/09/23 02:40:18;;;;;;;20.33;10.27;;;8.30;99.90;;;;;;5055401;28;20032;-67
2022/09/23 02:42:50;;;;;;;15.07;9.18;;;8.30;99.90;;;;;;5068549;28;20027;-70
2022/09/23 02:45:16;;;;;;;16.58;7.50;;;8.40;99.90;;;;;;5071347;28;20039;-67
2022/09/23 02:47:45;;;;;;;12.07;6.78;;;8.40;99.90;;;;;;5070551;28;20008;-67
2022/09/23 02:50:11;;;;;;;10.00;5.32;;;8.30;99.90;;;;;;5071215;28;20032;-67
2022/09/23 02:52:37;;;;;;;13.18;6.30;;;8.20;99.90;;;;;;5071058;28;20479;-67
2022/09/23 02:55:05;;;;;;;12.77;6.80;;;8.20;99.90;;;;;;5071136;28;20360;-67
2022/09/23 02:57:31;;;;;;;10.35;6.43;;;8.20;99.90;;;;;;5070580;28;20103;-67
2022/09/23 02:59:57;;;;;;;12.27;7.03;;;8.10;99.90;;;;;;5071256;28;20086;-67
2022/09/23 03:02:39;;;;;;;14.40;5.72;;;8.10;99.90;;;;;;5070918;28;20017;-67
2022/09/23 03:05:22;;;;;;;10.73;5.97;;;8.10;99.90;;;;;;5070095;28;20063;-67
2022/09/23 03:08:19;;;;;;;14.85;6.72;;;8.10;99.90;;;;;;5052988;28;20047;-67
2022/09/23 03:11:09;;;;;;;10.73;5.43;;;8.00;99.90;;;;;;5061574;28;20063;-67
2022/09/23 03:14:06;;;;;;;9.20;5.40;;;8.00;99.90;;;;;;5069903;28;20013;-67
2022/09/23 03:16:54;;;;;;;7.07;4.60;;;8.00;99.90;;;;;;5070397;28;20052;-68
2022/09/23 03:19:33;;;;;;;11.57;5.32;;;8.00;99.90;;;;;;5056936;28;20028;-67
2022/09/23 03:22:10;;;;;;;10.38;5.63;;;7.90;99.90;;;;;;5070937;28;20025;-67
2022/09/23 03:24:39;;;;;;;20.98;6.50;;;7.90;99.90;;;;;;5071119;28;20032;-68
2022/09/23 03:27:15;;;;;;;12.35;6.10;;;7.90;99.90;;;;;;5071170;28;20599;-67
2022/09/23 03:29:46;;;;;;;16.75;6.85;;;7.90;99.90;;;;;;5070918;28;20036;-67
2022/09/23 03:32:15;;;;;;;13.55;6.28;;;7.90;99.90;;;;;;5070953;28;20029;-67
2022/09/23 03:34:43;;;;;;;12.55;5.47;;;7.80;99.90;;;;;;5071114;28;20032;-66
2022/09/23 03:37:30;;;;;;;18.52;8.40;;;7.70;99.90;;;;;;5070557;28;20036;-66
2022/09/23 03:40:02;;;;;;;14.40;6.60;;;7.80;99.90;;;;;;5059462;28;20032;-67
2022/09/23 03:42:30;;;;;;;13.13;6.15;;;7.80;99.90;;;;;;5070971;28;20020;-67
2022/09/23 03:44:57;;;;;;;10.95;5.65;;;7.70;99.90;;;;;;5070812;28;20033;-67
2022/09/23 03:47:25;;;;;;;13.77;6.90;;;7.70;99.90;;;;;;5070677;28;20021;-67
2022/09/23 03:49:52;;;;;;;10.00;5.63;;;7.70;99.90;;;;;;5056402;28;21211;-67
2022/09/23 03:52:20;;;;;;;15.50;6.95;;;7.60;99.90;;;;;;5066149;28;20494;-67
2022/09/23 03:54:47;;;;;;;17.90;8.10;;;7.60;99.90;;;;;;5057547;28;20434;-66
2022/09/23 03:57:13;;;;;;;23.13;8.73;;;7.60;99.90;;;;;;5052814;28;20043;-66
2022/09/23 03:59:39;;;;;;;17.40;8.27;;;7.70;99.90;;;;;;5047002;28;20052;-67
2022/09/23 04:02:06;;;;;;;15.30;8.23;;;7.70;99.90;;;;;;5052307;28;20043;-66
2022/09/23 04:04:34;;;;;;;17.83;7.20;;;7.70;99.90;;;;;;5065914;28;20479;-67
2022/09/23 04:07:01;;;;;;;14.27;7.40;;;7.70;99.90;;;;;;5069655;28;20055;-68
2022/09/23 04:09:26;;;;;;;16.17;7.43;;;7.60;99.90;;;;;;5052423;28;20037;-68
2022/09/23 04:11:53;;;;;;;14.32;7.93;;;7.60;99.90;;;;;;5068643;28;20032;-68
2022/09/23 04:14:20;;;;;;;16.20;7.95;;;7.60;99.90;;;;;;5070475;28;20021;-69
2022/09/23 04:16:47;;;;;;;18.33;7.90;;;7.60;99.90;;;;;;5073798;28;20029;-66
2022/09/23 04:19:13;;;;;;;17.10;8.50;;;7.60;99.90;;;;;;5059424;28;20379;-68
2022/09/23 04:21:40;;;;;;;17.73;8.27;;;7.60;99.90;;;;;;5074490;28;20505;-68
2022/09/23 04:24:07;;;;;;;15.23;7.85;;;7.70;99.90;;;;;;5073180;28;20017;-65
2022/09/23 04:26:33;;;;;;;13.60;7.68;;;7.70;99.90;;;;;;5072872;28;20039;-67
2022/09/23 04:28:59;;;;;;;12.95;7.65;;;7.70;99.90;;;;;;5073714;28;20031;-67
2022/09/23 04:31:25;;;;;;;19.00;8.32;;;7.60;99.90;;;;;;5073816;28;20067;-67
2022/09/23 04:33:54;;;;;;;18.70;7.75;;;7.60;99.90;;;;;;5073770;28;20016;-67
2022/09/23 04:36:20;;;;;;;17.17;9.98;;;7.60;99.90;;;;;;5073531;28;20063;-66
2022/09/23 04:38:48;;;;;;;17.33;10.35;;;7.50;99.90;;;;;;5074018;28;20051;-67
2022/09/23 04:41:15;;;;;;;18.98;10.02;;;7.60;99.90;;;;;;5073547;28;20099;-67
2022/09/23 04:43:41;;;;;;;25.77;14.45;;;7.60;99.90;;;;;;5073830;28;20016;-67
2022/09/23 04:46:10;;;;;;;16.10;8.98;;;7.70;99.90;;;;;;5073710;28;20033;-67
2022/09/23 04:48:37;;;;;;;22.45;12.20;;;7.70;99.90;;;;;;5074060;28;20020;-67
2022/09/23 04:51:05;;;;;;;18.88;12.07;;;8.20;99.90;;;;;;5072984;28;20047;-66
2022/09/23 04:53:31;;;;;;;18.98;11.98;;;9.00;99.90;;;;;;5073418;28;20370;-67
2022/09/23 04:56:14;;;;;;;19.10;12.63;;;9.70;99.90;;;;;;5069637;28;20063;-68
2022/09/23 04:58:41;;;;;;;21.40;12.02;;;10.30;99.90;;;;;;5063040;28;20116;-67
2022/09/23 05:01:15;;;;;;;16.48;10.48;;;10.80;99.90;;;;;;5067576;28;20475;-68
2022/09/23 05:03:42;;;;;;;20.33;11.40;;;11.30;99.90;;;;;;5060839;28;20468;-68
2022/09/23 05:06:10;;;;;;;17.27;10.80;;;11.80;99.90;;;;;;5072989;28;20398;-65
2022/09/23 05:08:36;;;;;;;15.75;10.57;;;11.90;99.90;;;;;;5073161;28;20111;-65
2022/09/23 05:11:06;;;;;;;17.50;10.70;;;12.00;99.90;;;;;;5084632;28;20165;-68
2022/09/23 05:13:32;;;;;;;17.88;10.00;;;12.50;99.90;;;;;;5051874;28;20017;-68
2022/09/23 05:16:03;;;;;;;16.63;10.15;;;12.90;99.90;;;;;;5059561;28;20127;-69
2022/09/23 05:18:35;;;;;;;19.08;10.63;;;12.90;99.90;;;;;;5057215;28;20044;-68
2022/09/23 05:21:02;;;;;;;15.35;10.98;;;13.20;99.90;;;;;;5072264;28;20036;-67
2022/09/23 05:23:29;;;;;;;21.40;11.02;;;13.80;99.90;;;;;;5072451;28;20513;-68
2022/09/23 05:26:00;;;;;;;18.77;11.32;;;14.20;99.90;;;;;;5071597;28;20493;-67
2022/09/23 05:28:31;;;;;;;21.67;12.55;;;14.00;99.90;;;;;;5063291;28;20468;-68
2022/09/23 05:31:05;;;;;;;16.30;10.40;;;13.90;99.90;;;;;;5055648;28;20048;-68
2022/09/23 05:33:32;;;;;;;18.77;10.98;;;14.00;99.90;;;;;;5066372;28;20066;-69
2022/09/23 05:35:58;;;;;;;17.05;10.27;;;14.60;99.90;;;;;;5071273;28;20029;-68
2022/09/23 05:38:24;;;;;;;16.52;10.30;;;14.90;99.90;;;;;;5071899;28;20024;-68
2022/09/23 05:40:58;;;;;;;16.90;9.98;;;15.10;99.90;;;;;;5066112;28;20028;-67
2022/09/23 05:43:24;;;;;;;18.17;11.07;;;14.90;99.90;;;;;;5063798;28;20025;-68
2022/09/23 05:45:51;;;;;;;19.50;11.18;;;13.80;99.90;;;;;;5070127;28;20021;-68
2022/09/23 05:48:17;;;;;;;20.83;11.45;;;12.90;99.90;;;;;;5071256;28;20093;-69
2022/09/23 05:50:50;;;;;;;21.70;12.07;;;12.30;99.90;;;;;;5071983;28;20039;-68
2022/09/23 05:53:17;;;;;;;17.55;10.18;;;11.90;99.90;;;;;;5071858;28;20020;-67
2022/09/23 05:55:44;;;;;;;20.42;10.98;;;11.70;99.90;;;;;;5066978;28;20104;-67
2022/09/23 05:58:11;;;;;;;20.05;12.30;;;11.70;99.90;;;;;;5062339;28;20025;-68
2022/09/23 06:00:41;;;;;;;17.08;9.95;;;11.60;99.90;;;;;;5069125;28;20532;-68
2022/09/23 06:03:12;;;;;;;18.88;9.80;;;11.60;99.90;;;;;;5069246;28;20048;-68
2022/09/23 06:05:38;;;;;;;16.58;10.10;;;11.70;99.90;;;;;;5070225;28;20076;-68
2022/09/23 06:08:04;;;;;;;18.40;9.80;;;11.80;99.90;;;;;;5066007;28;20115;-68
2022/09/23 06:10:29;;;;;;;18.40;10.65;;;11.50;99.90;;;;;;5059504;28;20032;-69
2022/09/23 06:12:55;;;;;;;19.13;9.43;;;11.50;99.90;;;;;;5071598;28;20021;-68
2022/09/23 06:15:21;;;;;;;19.77;9.35;;;11.60;99.90;;;;;;5067065;28;20029;-68
2022/09/23 06:17:50;;;;;;;18.15;9.65;;;11.60;99.90;;;;;;5068633;28;20023;-68
2022/09/23 06:20:16;;;;;;;16.98;10.02;;;11.80;99.90;;;;;;5069588;28;20020;-68
2022/09/23 06:22:41;;;;;;;14.90;8.63;;;11.70;99.90;;;;;;5072002;28;20367;-68
2022/09/23 06:25:07;;;;;;;17.73;9.80;;;11.80;99.90;;;;;;5071035;28;20387;-67
2022/09/23 06:27:33;;;;;;;15.60;9.10;;;11.90;99.90;;;;;;5071765;28;20119;-68
2022/09/23 06:29:59;;;;;;;14.27;7.00;;;11.90;99.90;;;;;;5062529;28;20459;-64
2022/09/23 06:32:25;;;;;;;11.32;6.18;;;12.00;99.90;;;;;;5071747;28;20024;-68
2022/09/23 06:34:50;;;;;;;15.65;7.45;;;12.00;99.90;;;;;;5072124;28;20032;-68
2022/09/23 06:37:16;;;;;;;11.13;6.32;;;12.10;99.90;;;;;;5067938;28;20051;-68
2022/09/23 06:39:42;;;;;;;10.57;5.85;;;12.10;99.90;;;;;;5060252;28;20153;-68
2022/09/23 06:42:08;;;;;;;12.35;6.68;;;12.10;99.90;;;;;;5071887;28;20487;-68
2022/09/23 06:44:34;;;;;;;8.88;5.85;;;12.10;99.90;;;;;;5063073;28;20029;-68
2022/09/23 06:46:59;;;;;;;10.65;5.97;;;12.10;99.90;;;;;;5060880;28;20028;-69
2022/09/23 06:49:25;;;;;;;11.63;5.47;;;12.00;99.90;;;;;;5065414;28;20391;-67
2022/09/23 06:51:51;;;;;;;12.07;5.72;;;12.00;99.90;;;;;;5063860;28;20028;-68
2022/09/23 06:54:17;;;;;;;11.23;5.93;;;12.20;99.90;;;;;;5071217;28;20446;-67
2022/09/23 06:56:46;;;;;;;8.75;5.38;;;12.40;99.90;;;;;;5062272;28;20017;-68
2022/09/23 06:59:15;;;;;;;11.23;6.25;;;12.30;99.90;;;;;;5058238;28;20078;-68
2022/09/23 07:01:42;;;;;;;14.63;5.38;;;12.30;99.90;;;;;;5071210;28;20418;-67
2022/09/23 07:04:09;;;;;;;10.77;5.10;;;12.30;99.90;;;;;;5070266;28;20032;-67
2022/09/23 07:06:36;;;;;;;11.20;5.65;;;12.50;99.90;;;;;;5053945;28;20372;-68
2022/09/23 07:09:03;;;;;;;8.82;5.45;;;12.40;99.90;;;;;;5071501;28;20063;-68
2022/09/23 07:11:28;;;;;;;12.30;6.38;;;12.40;99.90;;;;;;5071155;28;20166;-67
2022/09/23 07:13:54;;;;;;;13.73;6.72;;;12.50;99.90;;;;;;5071100;28;20020;-68
2022/09/23 07:16:20;;;;;;;12.52;6.35;;;12.60;99.90;;;;;;5070971;28;20052;-68
2022/09/23 07:18:46;;;;;;;10.38;5.95;;;12.70;99.90;;;;;;5068834;28;20048;-67
2022/09/23 07:21:15;;;;;;;8.68;5.15;;;12.70;99.90;;;;;;5070975;28;20027;-67
2022/09/23 07:23:43;;;;;;;10.60;5.38;;;12.80;99.90;;;;;;5066617;28;20013;-67
2022/09/23 07:26:08;;;;;;;10.40;6.32;;;12.90;99.90;;;;;;5057811;28;20032;-66
2022/09/23 07:28:35;;;;;;;11.52;6.30;;;12.90;99.90;;;;;;5068913;28;20025;-68
2022/09/23 07:31:06;;;;;;;10.75;5.57;;;12.90;99.90;;;;;;5060757;28;20068;-67
2022/09/23 07:33:36;;;;;;;10.70;6.25;;;13.20;99.90;;;;;;5066475;28;20025;-68
2022/09/23 07:36:08;;;;;;;9.60;5.95;;;13.30;99.90;;;;;;5061983;28;20033;-66
2022/09/23 07:38:35;;;;;;;10.00;5.75;;;13.40;99.90;;;;;;5054691;28;20029;-68
2022/09/23 07:41:07;;;;;;;10.52;5.75;;;13.40;99.90;;;;;;5062808;28;20029;-68
2022/09/23 07:43:33;;;;;;;11.13;6.03;;;13.60;99.90;;;;;;5070568;28;20056;-69
2022/09/23 07:46:13;;;;;;;9.75;5.43;;;13.50;99.90;;;;;;5069837;28;20090;-68
2022/09/23 07:48:39;;;;;;;10.35;5.43;;;13.60;99.90;;;;;;5070878;28;20367;-68
2022/09/23 07:51:33;;;;;;;10.73;5.30;;;13.80;99.90;;;;;;5073602;28;20036;-68
2022/09/23 07:53:59;;;;;;;10.52;6.10;;;14.10;99.90;;;;;;5070538;28;20474;-68
2022/09/23 07:56:27;;;;;;;9.95;6.00;;;14.10;99.90;;;;;;5073992;28;20032;-68
2022/09/23 07:59:02;;;;;;;10.48;5.40;;;14.00;99.90;;;;;;5075491;28;20025;-68
2022/09/23 08:01:34;;;;;;;10.93;5.85;;;14.00;99.90;;;;;;5074485;28;20471;-68
2022/09/23 08:04:05;;;;;;;12.03;6.13;;;14.10;99.90;;;;;;5074781;28;20119;-68
2022/09/23 08:06:32;;;;;;;12.18;5.95;;;14.20;99.90;;;;;;5074171;28;20552;-68
2022/09/23 08:08:59;;;;;;;12.45;6.15;;;14.30;99.90;;;;;;5074540;28;20381;-69
2022/09/23 08:11:26;;;;;;;13.88;6.63;;;14.20;99.90;;;;;;5073729;28;20047;-68
2022/09/23 08:13:53;;;;;;;10.20;5.53;;;14.20;99.90;;;;;;5064181;28;20423;-68
2022/09/23 08:16:20;;;;;;;9.63;5.18;;;14.40;99.90;;;;;;5063462;28;20032;-68
2022/09/23 08:18:45;;;;;;;9.23;5.00;;;14.60;99.90;;;;;;5068782;28;20021;-69
2022/09/23 08:21:16;;;;;;;9.38;5.40;;;14.60;99.90;;;;;;5065728;28;20025;-69
2022/09/23 08:23:42;;;;;;;9.00;4.97;;;14.60;99.90;;;;;;5062645;28;20028;-67
2022/09/23 08:26:08;;;;;;;9.10;5.25;;;14.60;99.90;;;;;;5074196;28;20523;-67
2022/09/23 08:28:34;;;;;;;8.10;5.20;;;14.80;99.90;;;;;;5069181;28;20115;-64
2022/09/23 08:31:00;;;;;;;11.27;5.40;;;14.90;99.90;;;;;;5067582;28;20037;-68
2022/09/23 08:33:26;;;;;;;10.77;5.20;;;15.00;99.90;;;;;;5060099;28;20025;-68
2022/09/23 08:35:57;;;;;;;9.43;5.55;;;15.00;99.90;;;;;;5070838;28;20024;-68
2022/09/23 08:38:23;;;;;;;8.13;4.50;;;15.10;99.90;;;;;;5074053;28;20035;-68
2022/09/23 08:40:49;;;;;;;13.35;6.18;;;15.00;99.90;;;;;;5073565;28;20025;-66
2022/09/23 08:43:30;;;;;;;10.98;5.65;;;15.10;99.90;;;;;;5072739;28;20189;-68
2022/09/23 08:46:03;;;;;;;11.23;4.97;;;15.00;99.90;;;;;;5070530;28;20024;-68
2022/09/23 08:48:37;;;;;;;9.20;5.05;;;15.20;99.90;;;;;;5071770;28;20112;-69
2022/09/23 08:51:12;;;;;;;10.73;4.50;;;15.20;99.90;;;;;;5069751;28;20399;-68
2022/09/23 08:53:40;;;;;;;13.38;6.00;;;15.20;99.90;;;;;;5048510;28;20021;-68
2022/09/23 08:56:15;;;;;;;12.50;6.07;;;15.30;99.90;;;;;;5071695;28;20403;-68
2022/09/23 08:58:54;;;;;;;11.32;5.75;;;15.50;99.90;;;;;;5073512;28;20475;-68
2022/09/23 09:01:46;;;;;;;9.48;5.75;;;15.50;99.90;;;;;;5071750;28;20024;-68
2022/09/23 09:04:22;;;;;;;8.85;5.10;;;15.70;99.90;;;;;;5072661;28;20035;-67
2022/09/23 09:07:06;;;;;;;9.43;5.15;;;15.90;99.90;;;;;;5072546;28;20486;-67
2022/09/23 09:09:44;;;;;;;9.48;6.05;;;15.80;99.90;;;;;;5074420;28;20037;-67
2022/09/23 09:12:23;;;;;;;8.48;4.85;;;15.80;99.90;;;;;;5073513;28;20048;-65
2022/09/23 09:15:06;;;;;;;10.18;5.57;;;15.90;99.90;;;;;;5072780;28;20532;-67
2022/09/23 09:17:35;;;;;;;8.38;5.53;;;16.10;99.90;;;;;;5063488;28;20028;-67
2022/09/23 09:20:20;;;;;;;9.88;5.65;;;16.00;99.90;;;;;;5073313;28;20147;-66
2022/09/23 09:22:51;;;;;;;9.60;4.80;;;16.20;99.90;;;;;;5073822;28;20029;-68
2022/09/23 09:25:48;;;;;;;8.88;4.72;;;16.40;99.90;;;;;;5073372;28;20104;-67
2022/09/23 09:28:16;;;;;;;9.93;5.35;;;16.70;99.90;;;;;;5072538;28;20017;-67
2022/09/23 09:30:45;;;;;;;9.20;5.43;;;16.70;99.90;;;;;;5066957;28;20021;-67
2022/09/23 09:33:17;;;;;;;13.63;6.65;;;16.60;99.90;;;;;;5072511;28;20489;-67
2022/09/23 09:36:12;;;;;;;10.88;6.68;;;16.60;99.90;;;;;;5070509;28;20043;-66
2022/09/23 09:38:38;;;;;;;11.40;6.15;;;16.50;99.90;;;;;;5070044;28;20031;-67
2022/09/23 09:41:12;;;;;;;8.05;5.07;;;16.30;99.90;;;;;;5072346;28;20107;-68
2022/09/23 09:43:40;;;;;;;10.32;5.07;;;16.50;99.90;;;;;;5072551;28;20669;-67
2022/09/23 09:46:36;;;;;;;9.68;5.35;;;16.60;99.90;;;;;;5072859;28;20016;-68
2022/09/23 09:49:15;;;;;;;10.00;5.97;;;16.60;99.90;;;;;;4977484;28;20494;-68
2022/09/23 09:51:41;;;;;;;8.68;5.53;;;16.70;99.90;;;;;;4971046;28;20065;-67
2022/09/23 09:54:22;;;;;;;9.05;5.03;;;16.80;99.90;;;;;;4973950;28;20500;-68
2022/09/23 09:56:49;;;;;;;8.32;5.00;;;16.70;99.90;;;;;;4982406;28;20131;-66
2022/09/23 09:59:22;;;;;;;9.75;4.75;;;16.90;99.90;;;;;;4977429;28;20015;-68
2022/09/23 10:01:48;;;;;;;9.90;5.40;;;17.10;99.90;;;;;;4977679;28;20034;-68
2022/09/23 10:04:21;;;;;;;8.10;4.82;;;17.20;99.90;;;;;;4978764;28;20031;-66
2022/09/23 10:07:24;;;;;;;8.85;5.15;;;17.30;99.90;;;;;;4982460;28;20577;-66
2022/09/23 10:09:50;;;;;;;;;;;17.10;99.90;;;;;;4918466;29;20145;-67
2022/09/23 10:12:21;;;;;;;8.10;3.90;;;17.40;99.90;;;;;;4913978;29;19907;-66
2022/09/23 10:14:52;;;;;;;7.63;4.57;;;17.40;99.90;;;;;;4914395;29;20094;-68
2022/09/23 10:17:23;;;;;;;6.60;4.13;;;17.30;99.90;;;;;;4917002;29;20048;-67
2022/09/23 10:19:59;;;;;;;6.35;4.20;;;17.30;99.90;;;;;;4909179;29;20179;-64
2022/09/23 10:22:32;;;;;;;8.40;4.30;;;17.30;99.90;;;;;;4915455;29;20024;-67
2022/09/23 10:25:02;;;;;;;8.07;3.25;;;17.30;99.90;;;;;;4908118;28;20040;-65
2022/09/23 10:27:31;;;;;;;5.85;3.45;;;17.40;99.90;;;;;;4989270;28;20034;-68
2022/09/23 10:30:03;;;;;;;4.32;3.25;;;17.30;99.90;;;;;;4988928;28;20050;-68
2022/09/23 10:32:39;;;;;;;8.75;3.72;;;17.30;99.90;;;;;;4989957;28;20018;-68
2022/09/23 10:35:08;;;;;;;8.20;4.05;;;17.40;99.90;;;;;;4989282;28;20042;-68
2022/09/23 10:37:40;;;;;;;8.20;4.20;;;17.40;99.90;;;;;;4984486;28;20046;-67
2022/09/23 10:46:44;;;;;;;6.32;3.25;;;17.30;99.90;;;;;;5072024;28;20033;-67
2022/09/23 10:49:32;;;;;;;7.32;3.92;;;17.70;99.90;;;;;;5071839;28;20052;-68
2022/09/23 10:52:06;;;;;;;8.23;3.97;;;17.90;99.90;;;;;;5071469;28;20028;-67
2022/09/23 10:54:56;;;;;;;6.05;3.35;;;17.90;99.90;;;;;;5053582;28;20032;-67
2022/09/23 10:57:43;;;;;;;6.53;3.70;;;17.70;99.90;;;;;;5072189;28;20359;-68
2022/09/23 11:00:30;;;;;;;5.40;3.15;;;17.70;99.90;;;;;;5071985;28;20489;-67
2022/09/23 11:02:56;;;;;;;9.07;4.35;;;17.70;99.90;;;;;;5072268;28;20071;-67
2022/09/23 11:05:57;;;;;;;6.70;3.58;;;17.80;99.90;;;;;;5071284;28;20060;-65
2022/09/23 11:08:54;;;;;;;7.90;4.03;;;17.90;99.90;;;;;;5004133;28;20126;-68
2022/09/23 11:11:55;;;;;;;5.82;3.30;;;17.70;99.90;;;;;;4989598;28;20038;-67
2022/09/23 11:14:26;;;;;;;5.72;3.25;;;17.60;99.90;;;;;;4932262;29;20411;-67
2022/09/23 11:17:16;;;;;;;8.38;3.70;;;17.60;99.90;;;;;;4931830;29;20451;-67
2022/09/23 11:20:01;;;;;;;5.43;3.25;;;17.50;99.90;;;;;;4932238;29;20135;-68
2022/09/23 11:23:09;;;;;;;7.68;3.35;;;17.40;99.90;;;;;;4931052;29;20028;-67
2022/09/23 11:26:00;;;;;;;7.47;3.60;;;17.50;99.90;;;;;;4930622;29;20516;-66
2022/09/23 11:28:42;;;;;;;7.10;3.75;;;17.60;99.90;;;;;;4930955;29;20141;-67
2022/09/23 11:31:29;;;;;;;6.65;3.85;;;17.50;99.90;;;;;;4931530;29;20127;-67
2022/09/23 11:34:09;;;;;;;9.88;3.95;;;17.60;99.90;;;;;;4931346;29;20068;-67
2022/09/23 11:36:45;;;;;;;4.22;2.63;;;17.80;99.90;;;;;;4930894;29;20111;-67
2022/09/23 11:39:26;;;;;;;5.80;3.22;;;17.80;99.90;;;;;;4930954;29;20043;-67
2022/09/23 11:41:56;;;;;;;6.82;3.83;;;17.80;99.90;;;;;;4931191;29;20043;-67
2022/09/23 11:44:31;;;;;;;7.60;4.13;;;17.90;99.90;;;;;;4935681;28;20083;-68
2022/09/23 11:47:02;;;;;;;6.32;3.30;;;17.90;99.90;;;;;;5008369;28;20026;-66
2022/09/23 11:49:40;;;;;;;5.43;3.25;;;18.00;99.90;;;;;;5008727;28;20038;-67
2022/09/23 11:52:19;;;;;;;4.82;2.70;;;17.90;99.90;;;;;;5058335;28;20049;-66
2022/09/23 11:54:57;;;;;;;4.43;2.50;;;17.90;99.90;;;;;;5057140;28;20024;-67
2022/09/23 11:57:39;;;;;;;4.07;2.35;;;17.90;99.90;;;;;;5070818;28;20033;-67
2022/09/23 12:00:21;;;;;;;4.25;2.60;;;17.80;99.90;;;;;;5071396;28;20024;-68
2022/09/23 12:02:56;;;;;;;5.65;2.92;;;17.90;99.90;;;;;;5070834;28;20491;-67
2022/09/23 12:05:26;;;;;;;4.57;3.20;;;17.80;99.90;;;;;;5070453;28;20048;-67
2022/09/23 12:08:02;;;;;;;4.78;2.90;;;17.90;99.90;;;;;;5070131;28;20043;-67
2022/09/23 12:11:07;;;;;;;4.75;2.65;;;18.00;99.90;;;;;;5063532;28;20036;-67
2022/09/23 12:13:40;;;;;;;4.72;3.13;;;18.20;99.90;;;;;;5007275;28;20041;-67
2022/09/23 12:16:24;;;;;;;5.53;3.25;;;18.30;99.90;;;;;;5009136;28;20038;-67
2022/09/23 12:19:20;;;;;;;5.43;3.03;;;18.30;99.90;;;;;;5009461;28;20088;-68
2022/09/23 12:22:09;;;;;;;4.38;2.75;;;18.00;99.90;;;;;;4970107;28;20049;-68
2022/09/23 12:24:56;;;;;;;5.75;2.63;;;17.80;99.90;;;;;;4912336;29;20519;-67
2022/09/23 12:27:38;;;;;;;5.90;2.70;;;17.60;99.90;;;;;;4911622;29;20543;-68
2022/09/23 12:30:17;;;;;;;6.53;3.03;;;17.90;99.90;;;;;;4912077;29;20059;-67
2022/09/23 12:32:43;;;;;;;4.97;2.70;;;18.10;99.90;;;;;;4911861;29;20044;-67
2022/09/23 12:35:23;;;;;;;5.88;2.47;;;18.20;99.90;;;;;;4911660;29;20044;-67
2022/09/23 12:37:50;;;;;;;4.60;2.40;;;18.30;99.90;;;;;;4914298;29;20487;-67
2022/09/23 12:40:21;;;;;;;4.88;2.78;;;18.30;99.90;;;;;;4915755;29;20031;-67
2022/09/23 12:42:48;;;;;;;4.97;2.60;;;18.30;99.90;;;;;;4915559;29;20127;-68
2022/09/23 12:45:30;;;;;;;2.97;2.03;;;18.40;99.90;;;;;;4915543;29;20040;-67
2022/09/23 12:48:02;;;;;;;5.40;2.50;;;18.50;99.90;;;;;;4916110;29;20044;-68
2022/09/23 12:51:12;;;;;;;4.05;2.15;;;18.60;99.90;;;;;;4916464;29;20073;-67
2022/09/23 12:53:49;;;;;;;3.88;2.30;;;18.40;99.90;;;;;;4954027;29;20039;-67
2022/09/23 12:56:38;;;;;;;3.92;2.22;;;18.20;99.90;;;;;;4953916;29;20039;-67
2022/09/23 12:59:18;;;;;;;4.10;2.80;;;18.00;99.90;;;;;;4962170;28;20051;-67
2022/09/23 13:01:44;;;;;;;3.10;2.42;;;18.20;99.90;;;;;;5023347;28;20437;-66
2022/09/23 13:07:33;;;;;;;3.30;2.22;;;17.80;99.90;;;;;;4996473;28;20065;-67
2022/09/23 13:10:17;;;;;;;3.80;2.20;;;17.70;99.90;;;;;;4993509;28;20042;-64
2022/09/23 13:12:44;;;;;;;4.65;2.53;;;17.80;99.90;;;;;;4991577;28;20030;-66
2022/09/23 13:15:27;;;;;;;5.10;2.67;;;17.70;99.90;;;;;;4991209;28;20600;-67
2022/09/23 13:18:19;;;;;;;4.65;2.00;;;17.50;99.90;;;;;;4991493;28;20082;-64
2022/09/23 13:20:47;;;;;;;2.78;2.00;;;17.60;99.90;;;;;;4991361;28;20384;-67
2022/09/23 13:23:23;;;;;;;4.53;2.10;;;17.70;99.90;;;;;;4975222;28;20077;-67